Honoraville, Alabama
Current Conditions -  °F | °C
As of 6:56 AM on Saturday 01 Nov 2014 (Local Time) from KPRN Reporting Station
Clear Clear  
Wind Chill: 32°   Ceiling: Unl
Heat Index: 38°   Visibility: 10mi
Dew Point: 25°   Wind: 8mph
Humidity: 60%   Direction: 320°NW
Pressure: 30.18"   Gusts: 16mph
Location:  31.85°N, 86.41°W
Report Text: KPRN 011156Z AUTO 32007G14KT 10SM CLR 03/M04 A3018 RMK AO2 SLP219 70001 T00331039 10072 20033 53014
Loading
Personal Weather Stations






























Interactive Weather Map
Tropical Storm Tracking
New forecast layout! Learn more

10-Day Weather Forecast

Advertisements
Track Severe Weather on mobile